N0YWB Weather Reports


Display with metric or nautical units.
time (UTC)temp
F
wind
direction
speed
MPH
gust
MPH
rain 1hr
in
rain 24hr
in
rain mn
in
humidity
%
barometer
mb
20260906091026 70 0.0 0.0 0.00 0.00 0.00 99 1019.2
20260906090023 70 270 0.0 3.0 0.00 0.00 0.00 99 1019.1
20260906085019 70 0.0 0.0 0.00 0.00 0.00 99 1018.9
20260906084036 70 0.0 0.0 0.00 0.00 0.00 99 1019.1
20260906083018 71 0.0 0.0 0.00 0.00 0.00 99 1019.1
20260906082021 71 0.0 0.0 0.00 0.00 0.00 99 1019.1
20260906081024 71 270 0.0 1.0 0.00 0.00 0.00 99 1019.1
20260906080026 72 0.0 0.0 0.00 0.00 0.00 99 1019.2
20260906075029 72 0.0 0.0 0.00 0.00 0.00 99 1019.2
20260906074031 72 270 0.0 3.0 0.00 0.00 0.00 99 1019.3
20260906073016 72 225 0.0 3.0 0.00 0.00 0.00 99 1019.4
20260906072019 72 0.0 1.0 0.00 0.00 0.00 99 1019.5
20260906071021 72 270 0.0 1.0 0.00 0.00 0.00 99 1019.4
20260906070024 72 270 0.0 1.0 0.00 0.00 0.00 99 1019.5
20260906065027 72 0.0 0.0 0.00 0.00 0.00 99 1019.4
20260906064049 72 0.0 0.0 0.00 0.00 0.00 99 1019.5
20260906063032 72 0.0 0.0 0.00 0.00 0.00 99 1019.5
20260906062016 72 0.0 0.0 0.00 0.00 0.00 99 1019.6
20260906061019 72 0.0 0.0 0.00 0.00 0.00 99 1019.6
20260906060021 72 0.0 0.0 0.00 0.00 0.00 99 1019.4
20260906055018 73 0.0 0.0 0.00 0.00 0.00 99 1019.6
20260906054027 73 0.0 0.0 0.00 0.00 0.00 99 1019.5
20260906053029 73 0.0 0.0 0.00 0.00 0.00 99 1019.5
20260906052032 73 0.0 0.0 0.00 0.00 0.00 99 1019.4
20260906051016 74 0.0 0.0 0.00 0.00 0.00 99 1019.3
20260906050019 74 0.0 0.0 0.00 0.00 0.00 99 1019.2
20260906045022 74 0.0 0.0 0.00 0.00 0.00 99 1019.2
20260906044025 74 225 0.0 1.0 0.00 0.00 0.00 99 1019.1
20260906043027 74 270 0.0 1.0 0.00 0.00 0.00 99 1019.1
20260906042110 75 0.0 0.0 0.00 0.00 0.00 99 1019.2
20260906041015 75 0.0 0.0 0.00 0.00 0.00 99 1019.0
20260906040037 75 0.0 0.0 0.00 0.00 0.00 99 1019.1
20260906035020 75 0.0 1.0 0.00 0.00 0.00 99 1019.2
20260906034043 75 0.0 0.0 0.00 0.00 0.00 99 1019.1
20260906033026 75 270 0.0 1.0 0.00 0.00 0.00 99 1019.0
20260906032028 75 0.0 1.0 0.00 0.00 0.00 99 1018.8
20260906031025 76 0.0 0.0 0.00 0.00 0.00 99 1018.6
20260906030036 76 248 0.0 1.0 0.00 0.00 0.00 99 1018.6
20260906025039 76 261 0.0 3.0 0.00 0.00 0.00 99 1018.5
20260906024015 76 0.0 0.0 0.00 0.00 0.00 99 1018.3
20260906023024 76 0.0 0.0 0.00 0.00 0.00 99 1018.1
20260906022027 76 0.0 0.0 0.00 0.00 0.00 99 1018.0
20260906021150 76 0.0 0.0 0.00 0.00 0.00 99 1017.9
20260906020032 77 0.0 0.0 0.00 0.00 0.00 98 1017.7
20260906015017 77 0.0 0.0 0.00 0.00 0.00 97 1017.7
20260906014020 78 0.0 0.0 0.00 0.00 0.00 96 1017.6
20260906013023 78 0.0 0.0 0.00 0.00 0.00 95 1017.5
20260906012045 79 270 0.0 2.0 0.00 0.00 0.00 94 1017.4
20260906011028 79 246 1.0 3.0 0.00 0.00 0.00 93 1017.2
20260906010031 80 259 0.0 1.0 0.00 0.00 0.00 93 1017.2
20260906005036 80 221 0.0 3.0 0.00 0.00 0.00 92 1017.2
20260906004018 81 273 3.0 5.0 0.00 0.00 0.00 92 1017.2
20260906003021 82 269 3.0 5.0 0.00 0.00 0.00 92 1017.3
20260906002044 83 263 3.0 5.0 0.00 0.00 0.00 91 1017.2
20260906001026 83 268 3.0 6.0 0.00 0.00 0.00 90 1017.0
20260906000023 84 268 4.0 6.0 0.00 0.00 0.00 90 1017.0
20260905235019 85 230 3.0 5.0 0.00 0.00 0.00 89 1016.8
20260905234016 86 249 2.0 5.0 0.00 0.00 0.00 89 1016.7
20260905233039 86 258 3.0 5.0 0.00 0.00 0.00 89 1016.6
20260905232022 87 260 4.0 5.0 0.00 0.00 0.00 88 1016.5
20260905231104 87 274 3.0 6.0 0.00 0.00 0.00 86 1016.5
20260905230027 88 287 4.0 6.0 0.00 0.00 0.00 84 1016.5
20260905225050 89 271 3.0 6.0 0.00 0.00 0.00 83 1016.3
20260905224015 89 269 4.0 6.0 0.00 0.00 0.00 82 1016.3
20260905223018 90 263 4.0 7.0 0.00 0.00 0.00 81 1016.3
20260905222020 91 274 3.0 5.0 0.00 0.00 0.00 80 1016.2
20260905221043 92 263 3.0 4.0 0.00 0.00 0.00 79 1016.0
20260905220046 92 241 3.0 5.0 0.00 0.00 0.00 78 1016.2
20260905215028 92 241 3.0 5.0 0.00 0.00 0.00 78 1016.3
20260905214051 92 230 4.0 5.0 0.00 0.00 0.00 76 1016.3
20260905213016 91 225 4.0 5.0 0.00 0.00 0.00 77 1016.3
20260905212018 92 224 4.0 8.0 0.00 0.00 0.00 79 1016.3
20260905211022 93 248 5.0 9.0 0.00 0.00 0.00 78 1016.5
20260905210023 93 256 3.0 5.0 0.00 0.00 0.00 77 1016.5
20260905205020 92 205 4.0 5.0 0.00 0.00 0.00 79 1016.5
20260905204017 94 285 3.0 4.0 0.00 0.00 0.00 76 1016.6
20260905203052 94 250 3.0 4.0 0.00 0.00 0.00 77 1016.7
20260905202016 92 239 3.0 5.0 0.00 0.00 0.00 78 1016.8
20260905201020 93 172 3.0 5.0 0.00 0.00 0.00 77 1016.8
20260905200022 93 239 3.0 5.0 0.00 0.00 0.00 77 1016.9
20260905195024 93 247 3.0 5.0 0.00 0.00 0.00 78 1017.2
20260905194027 92 263 3.0 4.0 0.00 0.00 0.00 79 1017.4
20260905193030 92 237 3.0 5.0 0.00 0.00 0.00 79 1017.5
20260905192033 91 170 3.0 5.0 0.00 0.00 0.00 80 1017.6
20260905191017 91 213 2.0 4.0 0.00 0.00 0.00 81 1017.6
20260905190020 91 249 3.0 5.0 0.00 0.00 0.00 80 1017.7
20260905185023 91 255 3.0 5.0 0.00 0.00 0.00 80 1017.7
20260905184025 91 234 3.0 4.0 0.00 0.00 0.00 82 1017.8
20260905183028 90 228 3.0 4.0 0.00 0.00 0.00 82 1017.8
20260905182030 89 255 2.0 4.0 0.00 0.00 0.00 83 1017.7
20260905181035 89 258 3.0 5.0 0.00 0.00 0.00 84 1017.8
20260905180017 89 236 3.0 5.0 0.00 0.00 0.00 83 1017.8
20260905175020 89 257 3.0 5.0 0.00 0.00 0.00 83 1017.6
20260905174017 89 236 3.0 6.0 0.00 0.00 0.00 84 1017.7
20260905173026 89 270 3.0 4.0 0.00 0.00 0.00 85 1017.7
20260905172029 89 241 3.0 6.0 0.00 0.00 0.00 85 1017.7
20260905171032 89 243 2.0 5.0 0.00 0.00 0.00 85 1017.8
20260905170016 89 256 2.0 5.0 0.00 0.00 0.00 83 1017.9
20260905165019 89 213 3.0 5.0 0.00 0.00 0.00 82 1017.9
20260905164102 89 233 3.0 5.0 0.00 0.00 0.00 84 1017.9
20260905163025 89 233 2.0 3.0 0.00 0.00 0.00 85 1017.9
20260905162027 89 275 2.0 4.0 0.00 0.00 0.00 85 1017.9
20260905161031 89 215 3.0 5.0 0.00 0.00 0.00 87 1017.9
20260905160015 89 250 2.0 4.0 0.00 0.00 0.00 87 1018.0
20260905155018 89 252 1.0 5.0 0.00 0.00 0.00 87 1017.8
20260905154020 88 184 1.0 2.0 0.00 0.00 0.00 88 1017.7
20260905153023 87 237 1.0 3.0 0.00 0.00 0.00 88 1017.7
20260905152026 87 235 1.0 3.0 0.00 0.00 0.00 89 1017.6
20260905151028 86 232 1.0 3.0 0.00 0.00 0.00 89 1017.5
20260905150045 86 261 1.0 2.0 0.00 0.00 0.00 90 1017.4
20260905145016 85 225 1.0 3.0 0.00 0.00 0.00 92 1017.0
20260905144019 85 257 1.0 4.0 0.00 0.00 0.00 92 1017.1
20260905143015 84 176 1.0 4.0 0.00 0.00 0.00 95 1017.1
20260905142044 82 166 2.0 4.0 0.00 0.00 0.00 98 1016.9
20260905141027 81 181 1.0 4.0 0.00 0.00 0.00 99 1017.0
20260905140030 79 166 1.0 3.0 0.00 0.00 0.00 99 1016.9
20260905135033 78 0.0 0.0 0.00 0.00 0.00 99 1016.9
20260905134017 77 0.0 0.0 0.00 0.00 0.00 99 1016.9
20260905133020 77 169 1.0 4.0 0.00 0.00 0.00 99 1016.9
20260905132023 77 0.0 1.0 0.00 0.00 0.00 99 1016.7
20260905131026 76 180 0.0 2.0 0.00 0.00 0.00 99 1016.5
20260905130028 76 180 0.0 1.0 0.00 0.00 0.00 99 1016.5
20260905125031 76 0.0 0.0 0.00 0.00 0.00 99 1016.2
20260905124016 76 0.0 0.0 0.00 0.00 0.00 99 1016.2
20260905123019 75 0.0 0.0 0.00 0.00 0.00 99 1016.1
20260905122022 75 0.0 0.0 0.00 0.00 0.00 99 1016.0
20260905121024 73 0.0 0.0 0.00 0.00 0.00 99 1016.0
20260905120027 73 0.0 0.0 0.00 0.00 0.00 99 1015.8
20260905115024 73 0.0 0.0 0.00 0.00 0.00 99 1015.8
20260905114020 73 0.0 0.0 0.00 0.00 0.00 99 1015.8
20260905113037 73 0.0 0.0 0.00 0.00 0.00 99 1015.8
20260905112020 73 0.0 0.0 0.00 0.00 0.00 99 1015.8
20260905111023 73 0.0 0.0 0.00 0.00 0.00 99 1015.6
20260905110026 73 0.0 0.0 0.00 0.00 0.00 99 1015.8
20260905105049 73 0.0 0.0 0.00 0.00 0.00 99 1015.8
20260905104032 73 0.0 0.0 0.00 0.00 0.00 99 1015.7
20260905103016 73 0.0 0.0 0.00 0.00 0.00 99 1015.6
20260905102039 74 0.0 0.0 0.00 0.00 0.00 99 1015.5
20260905101022 74 0.0 0.0 0.00 0.00 0.00 99 1015.6
20260905100024 74 0.0 0.0 0.00 0.00 0.00 99 1015.5
20260905095027 74 0.0 0.0 0.00 0.00 0.00 99 1015.5
20260905094050 74 0.0 0.0 0.00 0.00 0.00 99 1015.7
20260905093033 74 0.0 0.0 0.00 0.00 0.00 99 1015.7
20260905092018 74 0.0 0.0 0.00 0.00 0.00 99 1015.6